createdAt,value
2017-12-16T00:02:13.298Z,2.40
2017-12-16T00:04:40.754Z,2.50
2017-12-16T00:07:08.253Z,2.40
2017-12-16T00:09:36.500Z,2.40
2017-12-16T00:12:03.953Z,2.40
2017-12-16T00:14:31.421Z,2.40
2017-12-16T00:16:59.698Z,2.50
2017-12-16T00:19:27.936Z,2.50
2017-12-16T00:21:55.384Z,2.50
2017-12-16T00:24:22.973Z,2.50
2017-12-16T00:26:50.424Z,2.60
2017-12-16T00:29:18.699Z,2.70
2017-12-16T00:31:46.166Z,2.60
2017-12-16T00:34:14.467Z,2.70
2017-12-16T00:36:41.926Z,2.60
2017-12-16T00:39:09.366Z,2.70
2017-12-16T00:41:37.595Z,2.70
2017-12-16T00:44:05.185Z,2.60
2017-12-16T00:46:32.669Z,2.70
2017-12-16T00:49:00.193Z,2.70
2017-12-16T00:51:27.792Z,2.60
2017-12-16T00:53:55.269Z,2.70
2017-12-16T00:56:22.728Z,2.60
2017-12-16T00:58:50.175Z,2.60
2017-12-16T01:01:17.669Z,2.50
2017-12-16T01:03:45.154Z,2.50
2017-12-16T01:06:13.396Z,2.60
2017-12-16T01:08:40.852Z,2.60
2017-12-16T01:11:08.353Z,2.70
2017-12-16T01:13:35.852Z,2.70
2017-12-16T01:16:03.349Z,2.70
2017-12-16T01:18:31.590Z,2.60
2017-12-16T01:20:59.164Z,2.60
2017-12-16T01:23:27.437Z,2.60
2017-12-16T01:25:54.908Z,2.50
2017-12-16T01:28:23.194Z,2.60
2017-12-16T01:30:50.647Z,2.60
2017-12-16T01:33:18.101Z,2.70
2017-12-16T01:35:57.590Z,2.70
2017-12-16T01:38:32.796Z,2.60
2017-12-16T01:41:00.305Z,2.60
2017-12-16T01:43:27.770Z,2.50
2017-12-16T01:45:56.050Z,2.50
2017-12-16T01:48:23.502Z,2.40
2017-12-16T01:50:51.729Z,2.60
2017-12-16T01:53:19.199Z,2.50
2017-12-16T01:55:46.726Z,2.50
2017-12-16T01:58:14.238Z,2.60
2017-12-16T02:00:42.489Z,2.60
2017-12-16T02:03:09.964Z,2.50
2017-12-16T02:05:37.444Z,2.60
2017-12-16T02:08:05.671Z,2.60
2017-12-16T02:10:33.163Z,2.50
2017-12-16T02:13:01.392Z,2.60
2017-12-16T02:15:28.859Z,2.60
2017-12-16T02:17:56.333Z,2.50
2017-12-16T02:20:23.857Z,2.50
2017-12-16T02:22:51.294Z,2.50
2017-12-16T02:25:18.792Z,2.50
2017-12-16T02:27:46.262Z,2.50
2017-12-16T02:30:13.721Z,2.60
2017-12-16T02:32:42.088Z,2.60
2017-12-16T02:35:09.560Z,2.50
2017-12-16T02:37:37.833Z,2.60
2017-12-16T02:40:06.082Z,2.50
2017-12-16T02:42:33.555Z,2.50
2017-12-16T02:45:01.015Z,2.50
2017-12-16T02:47:29.240Z,2.40
2017-12-16T02:49:56.738Z,2.40
2017-12-16T02:52:24.197Z,2.40
2017-12-16T02:54:51.666Z,2.40
2017-12-16T02:57:19.926Z,2.40
2017-12-16T02:59:47.401Z,2.30
2017-12-16T03:02:14.886Z,2.40
2017-12-16T03:04:42.591Z,2.40
2017-12-16T03:07:10.031Z,2.40
2017-12-16T03:09:37.512Z,2.40
2017-12-16T03:12:05.010Z,2.50
2017-12-16T03:14:32.509Z,2.50
2017-12-16T03:17:00.077Z,2.40
2017-12-16T03:19:27.523Z,2.30
2017-12-16T03:21:54.998Z,2.30
2017-12-16T03:24:23.236Z,2.40
2017-12-16T03:26:50.730Z,2.40
2017-12-16T03:29:18.980Z,2.50
2017-12-16T03:31:46.619Z,2.40
2017-12-16T03:34:14.083Z,2.50
2017-12-16T03:36:41.534Z,2.50
2017-12-16T03:39:09.026Z,2.50
2017-12-16T03:41:36.587Z,2.50
2017-12-16T03:44:04.084Z,2.40
2017-12-16T03:46:31.557Z,2.40
2017-12-16T03:48:59.082Z,2.30
2017-12-16T03:51:26.551Z,2.40
2017-12-16T03:53:54.057Z,2.50
2017-12-16T03:56:22.315Z,2.50
2017-12-16T03:58:49.788Z,2.50
2017-12-16T04:01:17.359Z,2.50
2017-12-16T04:03:45.615Z,2.60
2017-12-16T04:06:13.082Z,2.50
2017-12-16T04:08:40.552Z,2.60
2017-12-16T04:11:08.774Z,2.60
2017-12-16T04:13:36.223Z,2.50
2017-12-16T04:16:03.692Z,2.50
2017-12-16T04:18:31.222Z,2.50
2017-12-16T04:20:58.720Z,2.60
2017-12-16T04:23:26.195Z,2.60
2017-12-16T04:25:53.653Z,2.50
2017-12-16T04:28:22.021Z,2.50
2017-12-16T04:30:49.480Z,2.50
2017-12-16T04:33:17.750Z,2.50
2017-12-16T04:35:45.242Z,2.40
2017-12-16T04:38:12.756Z,2.50
2017-12-16T04:40:40.252Z,2.50
2017-12-16T04:43:07.755Z,2.50
2017-12-16T04:45:35.209Z,2.60
2017-12-16T04:48:02.681Z,2.50
2017-12-16T04:50:30.139Z,2.50
2017-12-16T04:52:57.615Z,2.50
2017-12-16T04:55:25.854Z,2.60
2017-12-16T04:57:53.381Z,2.50
2017-12-16T05:00:21.601Z,2.60
2017-12-16T05:02:49.073Z,2.50
2017-12-16T05:05:17.308Z,2.60
2017-12-16T05:07:44.819Z,2.50
2017-12-16T05:10:12.311Z,2.60
2017-12-16T05:12:39.767Z,2.60
2017-12-16T05:15:08.062Z,2.60
2017-12-16T05:17:35.577Z,2.50
2017-12-16T05:20:03.025Z,2.60
2017-12-16T05:22:30.587Z,2.60
2017-12-16T05:24:58.022Z,2.60
2017-12-16T05:27:25.538Z,2.60
2017-12-16T05:29:52.992Z,2.60
2017-12-16T05:32:20.438Z,2.60
2017-12-16T05:34:48.708Z,2.60
2017-12-16T05:37:16.203Z,2.70
2017-12-16T05:39:44.009Z,2.60
2017-12-16T05:42:11.523Z,2.60
2017-12-16T05:44:39.742Z,2.70
2017-12-16T05:47:07.194Z,2.70
2017-12-16T05:49:34.704Z,2.80
2017-12-16T05:52:02.153Z,2.80
2017-12-16T05:54:30.413Z,2.90
2017-12-16T05:56:57.864Z,2.90
2017-12-16T05:59:25.298Z,2.90
2017-12-16T06:01:52.766Z,3.00
2017-12-16T06:04:20.233Z,2.90
2017-12-16T06:06:47.713Z,2.90
2017-12-16T06:09:15.278Z,2.80
2017-12-16T06:11:43.505Z,2.90
2017-12-16T06:14:10.959Z,2.80
2017-12-16T06:16:38.429Z,2.90
2017-12-16T06:19:05.898Z,2.80
2017-12-16T06:21:33.588Z,2.70
2017-12-16T06:24:01.807Z,2.60
2017-12-16T06:26:29.270Z,2.60
2017-12-16T06:28:56.749Z,2.60
2017-12-16T06:31:24.215Z,2.60
2017-12-16T06:33:51.872Z,2.50
2017-12-16T06:36:20.079Z,2.40
2017-12-16T06:38:47.601Z,2.40
2017-12-16T06:41:15.183Z,2.40
2017-12-16T06:43:43.435Z,2.50
2017-12-16T06:46:10.911Z,2.40
2017-12-16T06:48:39.283Z,2.20
2017-12-16T06:51:07.508Z,2.20
2017-12-16T06:53:34.979Z,2.20
2017-12-16T06:56:02.448Z,2.20
2017-12-16T06:58:29.908Z,2.10
2017-12-16T07:00:57.464Z,2.00
2017-12-16T07:03:24.922Z,2.20
2017-12-16T07:05:52.390Z,2.30
2017-12-16T07:08:20.600Z,2.20
2017-12-16T07:10:48.077Z,2.20
2017-12-16T07:13:15.539Z,2.20
2017-12-16T07:15:43.212Z,2.20
2017-12-16T07:18:11.180Z,2.20
2017-12-16T07:20:38.647Z,2.20
2017-12-16T07:23:06.138Z,2.30
2017-12-16T07:25:33.597Z,2.30
2017-12-16T07:28:01.091Z,2.30
2017-12-16T07:30:28.550Z,2.20
2017-12-16T07:32:56.021Z,2.20
2017-12-16T07:35:23.483Z,2.20
2017-12-16T07:37:50.964Z,2.20
2017-12-16T07:40:18.513Z,2.20
2017-12-16T07:42:46.753Z,2.60
2017-12-16T07:45:14.217Z,2.50
2017-12-16T07:47:41.687Z,2.60
2017-12-16T07:50:10.744Z,2.70
2017-12-16T07:52:38.208Z,2.60
2017-12-16T07:55:05.683Z,2.70
2017-12-16T07:57:33.156Z,2.90
2017-12-16T08:00:01.402Z,3.80
2017-12-16T08:02:28.892Z,3.70
2017-12-16T08:04:57.117Z,4.60
2017-12-16T08:07:24.655Z,4.60
2017-12-16T08:09:52.170Z,4.50
2017-12-16T08:12:20.416Z,4.60
2017-12-16T08:14:48.003Z,4.60
2017-12-16T08:17:16.228Z,4.80
2017-12-16T08:19:43.693Z,4.80
2017-12-16T08:22:11.197Z,4.60
2017-12-16T08:24:39.474Z,4.70
2017-12-16T08:27:07.700Z,4.40
2017-12-16T08:29:35.184Z,4.30
2017-12-16T08:32:02.736Z,4.40
2017-12-16T08:34:30.313Z,4.30
2017-12-16T08:36:58.541Z,4.00
2017-12-16T08:39:26.042Z,4.00
2017-12-16T08:41:54.287Z,4.00
2017-12-16T08:44:21.761Z,3.90
2017-12-16T08:46:49.256Z,3.80
2017-12-16T08:49:16.725Z,3.80
2017-12-16T08:51:44.181Z,3.90
2017-12-16T08:54:11.666Z,3.80
2017-12-16T08:56:39.243Z,3.80
2017-12-16T08:59:07.502Z,3.70
2017-12-16T09:01:34.950Z,3.70
2017-12-16T09:04:02.405Z,3.80
2017-12-16T09:06:29.875Z,3.70
2017-12-16T09:08:57.325Z,3.70
2017-12-16T09:11:24.837Z,3.70
2017-12-16T09:13:52.307Z,4.00
2017-12-16T09:16:19.745Z,4.00
2017-12-16T09:18:47.228Z,3.90
2017-12-16T09:21:14.684Z,4.00
2017-12-16T09:23:42.169Z,3.90
2017-12-16T09:26:09.633Z,4.00
2017-12-16T09:28:37.088Z,4.00
2017-12-16T09:31:05.353Z,4.00
2017-12-16T09:33:32.805Z,4.00
2017-12-16T09:36:01.049Z,4.10
2017-12-16T09:38:28.536Z,4.10
2017-12-16T09:40:56.009Z,4.10
2017-12-16T09:43:24.260Z,4.20
2017-12-16T09:45:51.728Z,4.10
2017-12-16T09:48:19.197Z,4.20
2017-12-16T09:50:47.425Z,4.30
2017-12-16T09:53:14.894Z,4.20
2017-12-16T09:55:42.357Z,4.20
2017-12-16T09:58:09.803Z,4.10
2017-12-16T10:00:37.277Z,3.80
2017-12-16T10:03:04.751Z,3.80
2017-12-16T10:05:33.011Z,4.00
2017-12-16T10:08:00.566Z,3.90
2017-12-16T10:10:28.159Z,4.00
2017-12-16T10:12:55.635Z,3.90
2017-12-16T10:15:23.870Z,4.00
2017-12-16T10:17:53.066Z,4.00
2017-12-16T10:20:21.283Z,3.90
2017-12-16T10:22:48.755Z,3.90
2017-12-16T10:25:16.251Z,4.00
2017-12-16T10:27:44.525Z,4.00
2017-12-16T10:30:12.759Z,4.00
2017-12-16T10:32:40.228Z,4.00
2017-12-16T10:35:07.705Z,4.10
2017-12-16T10:37:35.950Z,4.30
2017-12-16T10:40:03.417Z,4.30
2017-12-16T10:42:30.882Z,4.40
2017-12-16T10:44:58.374Z,4.30
2017-12-16T10:47:25.851Z,4.40
2017-12-16T10:49:53.300Z,4.50
2017-12-16T10:52:20.790Z,4.30
2017-12-16T10:54:48.318Z,4.30
2017-12-16T10:57:15.798Z,4.40
2017-12-16T10:59:43.283Z,4.50
2017-12-16T11:02:11.522Z,4.60
2017-12-16T11:04:38.981Z,4.50
2017-12-16T11:07:06.422Z,4.70
2017-12-16T11:09:33.947Z,4.70
2017-12-16T11:12:01.415Z,4.40
2017-12-16T11:14:28.875Z,4.30
2017-12-16T11:16:56.352Z,4.20
2017-12-16T11:19:23.843Z,4.20
2017-12-16T11:21:51.621Z,4.20
2017-12-16T11:24:19.897Z,4.00
2017-12-16T11:26:47.443Z,4.00
2017-12-16T11:29:14.904Z,4.10
2017-12-16T11:31:43.211Z,4.30
2017-12-16T11:34:10.674Z,4.30
2017-12-16T11:36:38.157Z,4.30
2017-12-16T11:39:05.610Z,4.20
2017-12-16T11:41:33.065Z,4.30
2017-12-16T11:44:00.532Z,4.30
2017-12-16T11:46:28.004Z,4.30
2017-12-16T11:48:55.462Z,4.40
2017-12-16T11:51:23.034Z,4.50
2017-12-16T11:53:51.239Z,4.60
2017-12-16T11:56:18.708Z,4.50
2017-12-16T11:58:46.182Z,4.60
2017-12-16T12:01:13.698Z,4.70
2017-12-16T12:03:41.179Z,4.50
2017-12-16T12:06:08.636Z,4.60
2017-12-16T12:08:36.107Z,4.80
2017-12-16T12:11:03.597Z,4.80
2017-12-16T12:13:31.835Z,4.80
2017-12-16T12:15:59.412Z,4.80
2017-12-16T12:18:26.886Z,4.90
2017-12-16T12:20:55.138Z,4.90
2017-12-16T12:23:22.584Z,4.80
2017-12-16T12:25:50.067Z,4.80
2017-12-16T12:28:18.303Z,4.80
2017-12-16T12:30:45.755Z,4.80
2017-12-16T12:33:13.216Z,4.90
2017-12-16T12:35:40.685Z,5.00
2017-12-16T12:38:08.266Z,4.90
2017-12-16T12:40:36.509Z,4.70
2017-12-16T12:43:03.982Z,4.70
2017-12-16T12:45:31.453Z,4.70
2017-12-16T12:47:59.678Z,4.50
2017-12-16T12:50:27.137Z,4.50
2017-12-16T12:52:54.624Z,4.50
2017-12-16T12:55:22.107Z,4.50
2017-12-16T12:57:50.350Z,4.60
2017-12-16T13:00:17.839Z,4.50
2017-12-16T13:02:55.291Z,4.60
2017-12-16T13:05:22.756Z,4.60
2017-12-16T13:07:50.991Z,4.60
2017-12-16T13:10:18.468Z,4.50
2017-12-16T13:12:45.908Z,4.40
2017-12-16T13:15:13.406Z,4.30
2017-12-16T13:17:41.675Z,4.10
2017-12-16T13:20:09.130Z,4.10
2017-12-16T13:22:36.677Z,4.10
2017-12-16T13:25:04.213Z,4.10
2017-12-16T13:27:31.715Z,4.30
2017-12-16T13:29:59.939Z,4.30
2017-12-16T13:32:27.403Z,4.30
2017-12-16T13:34:54.926Z,4.20
2017-12-16T13:37:22.396Z,4.20
2017-12-16T13:39:49.862Z,4.10
2017-12-16T13:42:17.320Z,4.20
2017-12-16T13:44:44.788Z,4.20
2017-12-16T13:47:12.257Z,4.20
2017-12-16T13:49:39.725Z,4.20
2017-12-16T13:52:07.959Z,4.30
2017-12-16T13:54:35.443Z,4.20
2017-12-16T13:57:02.917Z,4.20
2017-12-16T13:59:31.537Z,3.80
2017-12-16T14:01:59.009Z,3.80
2017-12-16T14:04:26.459Z,3.80
2017-12-16T14:06:53.920Z,3.70
2017-12-16T14:09:21.443Z,3.60
2017-12-16T14:11:49.320Z,3.50
2017-12-16T14:14:16.790Z,3.40
2017-12-16T14:16:44.294Z,3.40
2017-12-16T14:19:13.567Z,3.30
2017-12-16T14:21:41.035Z,3.30
2017-12-16T14:24:09.271Z,3.40
2017-12-16T14:26:36.749Z,3.30
2017-12-16T14:29:04.208Z,3.30
2017-12-16T14:31:31.678Z,3.30
2017-12-16T14:33:59.232Z,3.20
2017-12-16T14:36:26.703Z,3.20
2017-12-16T14:38:54.955Z,3.20
2017-12-16T14:41:22.425Z,3.20
2017-12-16T14:43:50.662Z,3.20
2017-12-16T14:46:18.140Z,3.10
2017-12-16T14:48:45.726Z,3.10
2017-12-16T14:51:13.948Z,3.00
2017-12-16T14:53:41.421Z,2.90
2017-12-16T14:56:08.951Z,2.80
2017-12-16T14:58:36.475Z,2.70
2017-12-16T15:01:04.750Z,2.60
2017-12-16T15:03:32.971Z,2.60
2017-12-16T15:06:00.464Z,2.50
2017-12-16T15:08:28.847Z,2.40
2017-12-16T15:10:56.323Z,2.30
2017-12-16T15:13:23.791Z,2.40
2017-12-16T15:15:51.290Z,2.40
2017-12-16T15:18:18.796Z,2.40
2017-12-16T15:20:46.281Z,2.50
2017-12-16T15:23:13.900Z,2.50
2017-12-16T15:25:42.156Z,2.40
2017-12-16T15:28:10.409Z,2.40
2017-12-16T15:30:37.870Z,2.40
2017-12-16T15:33:05.359Z,2.60
2017-12-16T15:35:33.601Z,2.60
2017-12-16T15:38:01.065Z,2.50
2017-12-16T15:40:28.549Z,2.60
2017-12-16T15:42:56.048Z,2.60
2017-12-16T15:45:23.539Z,2.50
2017-12-16T15:47:51.106Z,2.60
2017-12-16T15:50:19.374Z,2.60
2017-12-16T15:52:47.610Z,2.60
2017-12-16T15:55:15.096Z,2.60
2017-12-16T15:57:42.559Z,2.70
2017-12-16T16:00:10.785Z,2.60
2017-12-16T16:02:38.255Z,2.50
2017-12-16T16:05:05.726Z,2.40
2017-12-16T16:07:33.199Z,2.30
2017-12-16T16:10:01.444Z,2.40
2017-12-16T16:12:28.915Z,2.40
2017-12-16T16:14:56.406Z,2.40
2017-12-16T16:17:23.944Z,2.40
2017-12-16T16:19:52.186Z,2.50
2017-12-16T16:22:19.663Z,2.40
2017-12-16T16:24:47.228Z,2.50
2017-12-16T16:27:15.500Z,2.50
2017-12-16T16:29:42.961Z,2.40
2017-12-16T16:32:11.208Z,2.20
2017-12-16T16:34:38.767Z,2.20
2017-12-16T16:37:06.248Z,2.30
2017-12-16T16:39:33.793Z,2.30
2017-12-16T16:42:01.252Z,2.40
2017-12-16T16:44:28.711Z,2.30
2017-12-16T16:46:56.189Z,2.50
2017-12-16T16:49:23.657Z,2.50
2017-12-16T16:51:51.116Z,2.40
2017-12-16T16:54:18.583Z,2.40
2017-12-16T16:56:46.052Z,2.50
2017-12-16T16:59:13.521Z,2.40
2017-12-16T17:01:40.998Z,2.40
2017-12-16T17:04:08.474Z,2.40
2017-12-16T17:06:36.709Z,2.50
2017-12-16T17:09:04.207Z,2.40
2017-12-16T17:11:32.464Z,2.60
2017-12-16T17:13:59.948Z,2.50
2017-12-16T17:16:27.411Z,2.40
2017-12-16T17:18:54.933Z,2.50
2017-12-16T17:21:22.431Z,2.50
2017-12-16T17:23:49.897Z,2.40
2017-12-16T17:26:17.381Z,2.30
2017-12-16T17:28:44.890Z,2.30
2017-12-16T17:31:12.413Z,2.30
2017-12-16T17:33:39.877Z,2.20
2017-12-16T17:36:08.141Z,2.30
2017-12-16T17:38:35.605Z,2.20
2017-12-16T17:41:04.006Z,2.20
2017-12-16T17:43:31.493Z,2.20
2017-12-16T17:45:58.942Z,2.30
2017-12-16T17:48:26.418Z,2.30
2017-12-16T17:50:53.892Z,2.40
2017-12-16T17:53:21.378Z,2.30
2017-12-16T17:55:49.689Z,2.30
2017-12-16T17:58:17.154Z,2.20
2017-12-16T18:00:44.630Z,2.30
2017-12-16T18:03:12.128Z,2.40
2017-12-16T18:05:40.355Z,2.40
2017-12-16T18:08:07.934Z,2.40
2017-12-16T18:10:35.440Z,2.50
2017-12-16T18:13:02.907Z,2.50
2017-12-16T18:15:30.384Z,2.50
2017-12-16T18:17:57.853Z,2.40
2017-12-16T18:20:25.360Z,2.40
2017-12-16T18:22:54.793Z,2.50
2017-12-16T18:25:22.274Z,2.30
2017-12-16T18:27:50.542Z,2.30
2017-12-16T18:30:18.005Z,2.30
2017-12-16T18:32:46.238Z,2.40
2017-12-16T18:35:13.842Z,2.40
2017-12-16T18:37:42.077Z,2.40
2017-12-16T18:40:09.565Z,2.40
2017-12-16T18:42:37.125Z,2.50
2017-12-16T18:45:04.598Z,2.60
2017-12-16T18:47:32.831Z,2.50
2017-12-16T18:50:00.406Z,2.50
2017-12-16T18:52:27.864Z,2.40
2017-12-16T18:54:55.333Z,2.50
2017-12-16T18:57:23.608Z,2.50
2017-12-16T18:59:51.866Z,2.40
2017-12-16T19:02:19.424Z,2.40
2017-12-16T19:04:46.908Z,2.20
2017-12-16T19:07:14.436Z,2.10
2017-12-16T19:09:41.939Z,2.10
2017-12-16T19:12:09.454Z,2.10
2017-12-16T19:14:36.935Z,2.10
2017-12-16T19:17:05.180Z,1.90
2017-12-16T19:19:32.641Z,1.90
2017-12-16T19:22:00.863Z,1.90
2017-12-16T19:24:28.371Z,1.90
2017-12-16T19:26:55.833Z,1.90
2017-12-16T19:29:24.081Z,2.20
2017-12-16T19:31:51.535Z,2.10
2017-12-16T19:34:19.031Z,2.20
2017-12-16T19:36:47.289Z,2.10
2017-12-16T19:39:14.833Z,2.10
2017-12-16T19:41:42.341Z,2.20
2017-12-16T19:44:09.853Z,2.20
2017-12-16T19:46:37.325Z,2.20
2017-12-16T19:49:05.575Z,2.20
2017-12-16T19:51:33.134Z,2.10
2017-12-16T19:54:00.753Z,2.20
2017-12-16T19:56:28.206Z,2.20
2017-12-16T19:58:55.669Z,2.20
2017-12-16T20:01:23.152Z,2.30
2017-12-16T20:03:50.704Z,2.20
2017-12-16T20:06:18.197Z,2.20
2017-12-16T20:08:46.440Z,2.30
2017-12-16T20:11:13.997Z,2.20
2017-12-16T20:13:41.464Z,2.20
2017-12-16T20:16:09.024Z,2.20
2017-12-16T20:18:36.489Z,2.10
2017-12-16T20:21:04.741Z,2.00
2017-12-16T20:23:32.205Z,2.00
2017-12-16T20:25:59.672Z,2.10
2017-12-16T20:28:27.926Z,2.00
2017-12-16T20:30:55.415Z,1.90
2017-12-16T20:33:23.631Z,2.10
2017-12-16T20:35:51.116Z,2.00
2017-12-16T20:38:18.614Z,2.10
2017-12-16T20:40:46.085Z,2.10
2017-12-16T20:43:13.642Z,2.20
2017-12-16T20:45:41.100Z,2.20
2017-12-16T20:48:08.583Z,2.00
2017-12-16T20:50:36.067Z,2.00
2017-12-16T20:53:03.545Z,2.10
2017-12-16T20:55:31.063Z,2.10
2017-12-16T20:57:58.556Z,2.20
2017-12-16T21:00:26.020Z,2.10
2017-12-16T21:02:53.473Z,2.10
2017-12-16T21:05:20.966Z,2.20
2017-12-16T21:07:48.503Z,2.20
2017-12-16T21:10:15.969Z,2.00
2017-12-16T21:12:43.581Z,2.10
2017-12-16T21:15:11.837Z,1.80
2017-12-16T21:17:39.339Z,1.70
2017-12-16T21:20:06.807Z,1.80
2017-12-16T21:22:34.264Z,1.70
2017-12-16T21:25:01.737Z,1.70
2017-12-16T21:27:29.197Z,1.80
2017-12-16T21:29:56.655Z,1.80
2017-12-16T21:32:24.977Z,1.90
2017-12-16T21:34:53.211Z,1.80
2017-12-16T21:37:20.810Z,1.70
2017-12-16T21:39:49.049Z,1.90
2017-12-16T21:42:16.523Z,1.80
2017-12-16T21:44:44.157Z,1.70
2017-12-16T21:47:11.633Z,1.70
2017-12-16T21:49:39.170Z,1.70
2017-12-16T21:52:06.650Z,1.80
2017-12-16T21:54:34.116Z,1.60
2017-12-16T21:57:02.373Z,1.70
2017-12-16T21:59:29.849Z,1.70
2017-12-16T22:01:58.100Z,1.60
2017-12-16T22:04:25.713Z,1.60
2017-12-16T22:06:53.185Z,1.60
2017-12-16T22:09:20.676Z,1.60
2017-12-16T22:11:48.224Z,1.80
2017-12-16T22:14:15.824Z,1.90
2017-12-16T22:16:44.105Z,1.90
2017-12-16T22:19:11.582Z,1.80
2017-12-16T22:21:39.044Z,1.90
2017-12-16T22:24:06.514Z,1.80
2017-12-16T22:26:34.012Z,1.80
2017-12-16T22:29:02.244Z,1.80
2017-12-16T22:31:29.707Z,1.80
2017-12-16T22:33:57.174Z,1.90
2017-12-16T22:36:24.658Z,1.90
2017-12-16T22:38:52.193Z,1.90
2017-12-16T22:41:19.646Z,1.80
2017-12-16T22:43:47.136Z,1.80
2017-12-16T22:46:14.668Z,2.00
2017-12-16T22:48:42.903Z,1.80
2017-12-16T22:51:10.498Z,1.80
2017-12-16T22:53:38.117Z,1.80
2017-12-16T22:56:05.628Z,2.00
2017-12-16T22:58:33.879Z,1.70
2017-12-16T23:01:01.413Z,1.70
2017-12-16T23:03:28.918Z,1.70
2017-12-16T23:05:57.198Z,2.00
2017-12-16T23:08:24.679Z,1.90
2017-12-16T23:10:52.186Z,2.00
2017-12-16T23:13:19.683Z,2.10
2017-12-16T23:15:47.164Z,2.00
2017-12-16T23:18:14.640Z,2.00
2017-12-16T23:20:42.213Z,1.90
2017-12-16T23:23:09.754Z,2.00
2017-12-16T23:25:37.325Z,1.90
2017-12-16T23:28:04.830Z,2.00
2017-12-16T23:30:32.288Z,1.80
2017-12-16T23:32:59.769Z,1.90
2017-12-16T23:35:27.365Z,1.90
2017-12-16T23:37:55.583Z,2.00
2017-12-16T23:40:23.184Z,2.00
2017-12-16T23:42:50.662Z,1.90
2017-12-16T23:45:18.897Z,1.90
2017-12-16T23:47:46.381Z,1.90
2017-12-16T23:50:14.633Z,2.10
2017-12-16T23:52:42.218Z,2.00
2017-12-16T23:55:10.460Z,2.10
2017-12-16T23:57:38.039Z,2.00
